createdAt,value
2023-03-12T00:03:48.038Z,97471.00
2023-03-12T00:07:53.515Z,97468.94
2023-03-12T00:11:55.572Z,97466.78
2023-03-12T00:15:57.742Z,97476.94
2023-03-12T00:19:59.870Z,97479.13
2023-03-12T00:24:02.104Z,97473.25
2023-03-12T00:28:04.554Z,97486.75
2023-03-12T00:32:07.205Z,97493.31
2023-03-12T00:36:09.800Z,97488.91
2023-03-12T00:40:12.716Z,97500.06
2023-03-12T00:44:15.033Z,97509.47
2023-03-12T00:48:17.555Z,97511.59
2023-03-12T00:52:19.961Z,97504.50
2023-03-12T00:56:22.256Z,97511.50
2023-03-12T01:00:24.472Z,97519.19
2023-03-12T01:04:27.347Z,97522.38
2023-03-12T01:08:30.642Z,97518.03
2023-03-12T01:12:33.091Z,97524.06
2023-03-12T01:16:35.514Z,97534.72
2023-03-12T01:20:37.926Z,97541.81
2023-03-12T01:24:40.121Z,97541.28
2023-03-12T01:28:42.203Z,97544.88
2023-03-12T01:32:44.837Z,97541.34
2023-03-12T01:36:48.150Z,97537.38
2023-03-12T01:40:50.431Z,97536.03
2023-03-12T01:44:52.499Z,97536.81
2023-03-12T01:48:57.136Z,97543.00
2023-03-12T01:53:00.546Z,97530.56
2023-03-12T01:57:06.873Z,97537.75
2023-03-12T02:01:09.286Z,97542.19
2023-03-12T02:05:41.771Z,97530.09
2023-03-12T02:09:52.153Z,97539.63
2023-03-12T02:13:56.424Z,97540.91
2023-03-12T02:17:58.892Z,97550.56
2023-03-12T02:22:01.847Z,97552.41
2023-03-12T02:26:05.610Z,97552.81
2023-03-12T02:30:08.790Z,97555.31
2023-03-12T02:34:11.692Z,97553.81
2023-03-12T02:38:42.546Z,97561.94
2023-03-12T02:42:45.745Z,97565.94
2023-03-12T02:46:51.309Z,97561.13
2023-03-12T02:50:53.381Z,97564.38
2023-03-12T02:54:58.010Z,97575.00
2023-03-12T02:59:01.554Z,97582.47
2023-03-12T03:03:06.445Z,97585.97
2023-03-12T03:07:08.720Z,97595.16
2023-03-12T03:11:15.147Z,97593.31
2023-03-12T03:15:18.904Z,97586.19
2023-03-12T03:19:21.034Z,97596.63
2023-03-12T03:23:23.341Z,97603.34
2023-03-12T03:27:25.704Z,97628.31
2023-03-12T03:31:28.894Z,97640.81
2023-03-12T03:35:31.170Z,97649.84
2023-03-12T03:39:34.685Z,97654.09
2023-03-12T03:43:37.255Z,97658.34
2023-03-12T03:47:40.232Z,97659.44
2023-03-12T03:51:45.173Z,97652.81
2023-03-12T03:55:52.039Z,97671.66
2023-03-12T03:59:54.558Z,97670.88
2023-03-12T04:03:57.906Z,97682.25
2023-03-12T04:08:03.350Z,97691.25
2023-03-12T04:12:08.022Z,97698.69
2023-03-12T04:16:13.647Z,97703.47
2023-03-12T04:20:16.416Z,97706.94
2023-03-12T04:24:20.443Z,97710.88
2023-03-12T04:28:24.231Z,97727.59
2023-03-12T04:32:26.709Z,97734.22
2023-03-12T04:36:29.195Z,97737.94
2023-03-12T04:40:31.744Z,97738.75
2023-03-12T04:44:35.572Z,97743.78
2023-03-12T04:48:39.020Z,97754.38
2023-03-12T04:52:42.166Z,97756.75
2023-03-12T04:56:44.408Z,97758.34
2023-03-12T05:00:48.610Z,97758.88
2023-03-12T05:04:50.989Z,97764.94
2023-03-12T05:08:53.380Z,97767.31
2023-03-12T05:12:55.869Z,97773.97
2023-03-12T05:16:58.216Z,97773.44
2023-03-12T05:21:07.277Z,97779.25
2023-03-12T05:25:10.536Z,97787.19
2023-03-12T05:29:12.733Z,97787.72
2023-03-12T05:33:15.590Z,97791.94
2023-03-12T05:37:17.895Z,97795.06
2023-03-12T05:41:26.406Z,97798.81
2023-03-12T05:45:33.310Z,97804.09
2023-03-12T05:49:35.895Z,97809.13
2023-03-12T05:53:38.302Z,97814.63
2023-03-12T05:57:41.412Z,97827.16
2023-03-12T06:01:44.884Z,97839.16
2023-03-12T06:05:48.618Z,97838.66
2023-03-12T06:09:50.792Z,97849.56
2023-03-12T06:13:53.202Z,97852.78
2023-03-12T06:17:55.416Z,97862.34
2023-03-12T06:21:58.312Z,97867.66
2023-03-12T06:26:02.372Z,97874.56
2023-03-12T06:30:05.475Z,97889.97
2023-03-12T06:34:08.325Z,97896.06
2023-03-12T06:38:10.430Z,97900.03
2023-03-12T06:42:14.769Z,97909.59
2023-03-12T06:46:19.259Z,97916.22
2023-03-12T06:50:21.600Z,97918.88
2023-03-12T06:54:23.678Z,97924.72
2023-03-12T06:58:26.219Z,97925.50
2023-03-12T07:02:28.406Z,97932.63
2023-03-12T07:06:30.533Z,97925.69
2023-03-12T07:10:33.259Z,97945.03
2023-03-12T07:14:35.272Z,97939.41
2023-03-12T07:18:37.827Z,97951.59
2023-03-12T07:22:40.301Z,97953.66
2023-03-12T07:26:43.797Z,97942.72
2023-03-12T07:30:50.623Z,97938.34
2023-03-12T07:34:52.756Z,97949.53
2023-03-12T07:38:54.879Z,97956.16
2023-03-12T07:42:57.381Z,97960.28
2023-03-12T07:47:09.690Z,97963.59
2023-03-12T07:51:18.977Z,97959.16
2023-03-12T07:55:21.285Z,97962.09
2023-03-12T07:59:24.058Z,97968.03
2023-03-12T08:03:26.950Z,97982.28
2023-03-12T08:07:32.550Z,97992.16
2023-03-12T08:11:34.666Z,97999.41
2023-03-12T08:15:36.783Z,98014.19
2023-03-12T08:19:39.065Z,98021.16
2023-03-12T08:23:41.219Z,98021.19
2023-03-12T08:27:43.453Z,98024.97
2023-03-12T08:32:03.470Z,98029.16
2023-03-12T08:36:07.084Z,98039.25
2023-03-12T08:40:13.540Z,98038.59
2023-03-12T08:44:16.275Z,98044.25
2023-03-12T08:48:18.512Z,98051.97
2023-03-12T08:52:20.907Z,98057.03
2023-03-12T08:56:23.097Z,98066.63
2023-03-12T09:00:25.865Z,98077.38
2023-03-12T09:04:28.700Z,98084.16
2023-03-12T09:08:34.099Z,98102.31
2023-03-12T09:12:36.923Z,98104.78
2023-03-12T09:16:39.197Z,98105.88
2023-03-12T09:20:43.008Z,98105.84
2023-03-12T09:24:49.187Z,98112.13
2023-03-12T09:28:52.560Z,98117.84
2023-03-12T09:32:54.989Z,98112.97
2023-03-12T09:36:57.375Z,98113.50
2023-03-12T09:41:00.954Z,98112.91
2023-03-12T09:45:12.218Z,98128.38
2023-03-12T09:49:31.247Z,98123.00
2023-03-12T09:53:42.710Z,98118.50
2023-03-12T09:57:46.527Z,98116.13
2023-03-12T10:01:57.733Z,98115.25
2023-03-12T10:06:01.626Z,98124.75
2023-03-12T10:10:13.033Z,98124.75
2023-03-12T10:14:40.874Z,98127.19
2023-03-12T10:18:48.243Z,98134.34
2023-03-12T10:23:23.568Z,98135.06
2023-03-12T10:27:29.989Z,98144.34
2023-03-12T10:31:44.031Z,98141.66
2023-03-12T10:35:47.714Z,98132.91
2023-03-12T10:39:52.151Z,98139.34
2023-03-12T10:43:55.622Z,98124.88
2023-03-12T10:48:03.158Z,98121.00
2023-03-12T10:52:20.807Z,98135.84
2023-03-12T10:56:26.632Z,98132.84
2023-03-12T11:00:32.385Z,98123.44
2023-03-12T11:04:35.028Z,98138.72
2023-03-12T11:08:37.919Z,98143.31
2023-03-12T11:13:02.851Z,98148.59
2023-03-12T11:17:23.411Z,98166.94
2023-03-12T11:21:29.499Z,98154.97
2023-03-12T11:25:34.471Z,98146.31
2023-03-12T11:29:44.918Z,98141.94
2023-03-12T11:33:50.734Z,98153.03
2023-03-12T11:38:15.075Z,98150.84
2023-03-12T11:42:36.705Z,98153.44
2023-03-12T11:46:54.455Z,98146.34
2023-03-12T11:51:36.041Z,98148.25
2023-03-12T11:55:56.735Z,98150.66
2023-03-12T12:00:27.210Z,98139.91
2023-03-12T12:05:28.684Z,98144.19
2023-03-12T12:09:41.708Z,98143.69
2023-03-12T12:14:14.173Z,98144.34
2023-03-12T12:18:27.836Z,98139.44
2023-03-12T12:23:06.851Z,98135.97
2023-03-12T12:27:29.442Z,98124.56
2023-03-12T12:32:25.399Z,98132.53
2023-03-12T12:36:39.519Z,98120.59
2023-03-12T12:41:00.082Z,98125.53
2023-03-12T12:45:13.528Z,98126.16
2023-03-12T12:49:47.198Z,98126.00
2023-03-12T12:54:21.342Z,98129.81
2023-03-12T12:58:44.950Z,98130.41
2023-03-12T13:02:53.101Z,98128.06
2023-03-12T13:07:28.698Z,98125.84
2023-03-12T13:11:45.385Z,98144.38
2023-03-12T13:15:55.351Z,98133.09
2023-03-12T13:20:27.182Z,98137.19
2023-03-12T13:24:44.390Z,98133.03
2023-03-12T13:29:19.199Z,98133.78
2023-03-12T13:33:50.146Z,98145.81
2023-03-12T13:38:04.233Z,98140.06
2023-03-12T13:42:39.821Z,98158.09
2023-03-12T13:47:00.283Z,98159.16
2023-03-12T13:51:25.525Z,98156.88
2023-03-12T13:55:39.127Z,98159.28
2023-03-12T13:59:46.509Z,98155.38
2023-03-12T14:04:00.698Z,98149.38
2023-03-12T14:08:59.509Z,98155.09
2023-03-12T14:13:54.119Z,98154.44
2023-03-12T14:18:24.102Z,98164.09
2023-03-12T14:22:40.478Z,98166.66
2023-03-12T14:26:51.733Z,98161.47
2023-03-12T14:31:10.496Z,98159.69
2023-03-12T14:35:50.397Z,98163.75
2023-03-12T14:40:01.741Z,98167.09
2023-03-12T14:44:26.417Z,98168.88
2023-03-12T14:48:43.556Z,98166.72
2023-03-12T14:52:51.854Z,98171.28
2023-03-12T14:57:03.162Z,98173.53
2023-03-12T15:01:16.720Z,98171.50
2023-03-12T15:05:27.561Z,98175.97
2023-03-12T15:09:37.877Z,98177.28
2023-03-12T15:13:46.720Z,98170.78
2023-03-12T15:17:59.418Z,98176.41
2023-03-12T15:22:18.752Z,98168.94
2023-03-12T15:26:32.416Z,98178.81
2023-03-12T15:30:40.204Z,98171.47
2023-03-12T15:34:51.952Z,98174.97
2023-03-12T15:39:13.849Z,98172.59
2023-03-12T15:43:27.759Z,98179.16
2023-03-12T15:47:40.873Z,98177.47
2023-03-12T15:52:09.739Z,98190.06
2023-03-12T15:56:25.805Z,98197.34
2023-03-12T16:00:47.565Z,98197.47
2023-03-12T16:04:56.752Z,98198.16
2023-03-12T16:09:08.065Z,98197.34
2023-03-12T16:13:16.109Z,98197.09
2023-03-12T16:17:21.054Z,98208.75
2023-03-12T16:21:25.163Z,98211.34
2023-03-12T16:25:29.037Z,98212.75
2023-03-12T16:29:39.412Z,98221.25
2023-03-12T16:33:44.067Z,98226.25
2023-03-12T16:37:49.001Z,98227.44
2023-03-12T16:42:00.109Z,98236.38
2023-03-12T16:46:09.193Z,98235.59
2023-03-12T16:50:19.642Z,98238.25
2023-03-12T16:54:25.029Z,98245.56
2023-03-12T16:58:31.452Z,98246.56
2023-03-12T17:02:36.344Z,98254.63
2023-03-12T17:06:40.512Z,98269.63
2023-03-12T17:10:42.935Z,98267.19
2023-03-12T17:14:46.925Z,98273.47
2023-03-12T17:18:49.218Z,98277.88
2023-03-12T17:22:51.837Z,98287.00
2023-03-12T17:26:56.836Z,98288.88
2023-03-12T17:30:59.984Z,98296.16
2023-03-12T17:35:07.006Z,98310.19
2023-03-12T17:39:09.439Z,98324.97
2023-03-12T17:43:12.229Z,98332.47
2023-03-12T17:47:14.540Z,98348.59
2023-03-12T17:51:19.434Z,98353.22
2023-03-12T17:55:22.849Z,98352.00
2023-03-12T17:59:25.153Z,98366.47
2023-03-12T18:03:27.483Z,98365.31
2023-03-12T18:07:29.811Z,98383.16
2023-03-12T18:11:32.235Z,98386.03
2023-03-12T18:15:34.449Z,98380.66
2023-03-12T18:19:36.597Z,98399.19
2023-03-12T18:23:38.919Z,98405.00
2023-03-12T18:27:41.588Z,98412.34
2023-03-12T18:31:44.626Z,98412.28
2023-03-12T18:35:47.355Z,98418.78
2023-03-12T18:39:50.035Z,98415.69
2023-03-12T18:43:53.993Z,98426.25
2023-03-12T18:47:56.530Z,98419.88
2023-03-12T18:51:58.755Z,98428.28
2023-03-12T18:56:01.223Z,98440.38
2023-03-12T19:00:04.716Z,98452.25
2023-03-12T19:04:07.243Z,98463.19
2023-03-12T19:08:10.324Z,98461.59
2023-03-12T19:12:12.933Z,98467.72
2023-03-12T19:16:18.826Z,98490.94
2023-03-12T19:20:21.787Z,98494.41
2023-03-12T19:24:24.492Z,98492.31
2023-03-12T19:28:27.963Z,98506.16
2023-03-12T19:32:43.204Z,98514.19
2023-03-12T19:36:46.751Z,98512.03
2023-03-12T19:40:59.292Z,98521.38
2023-03-12T19:45:02.690Z,98533.63
2023-03-12T19:49:06.305Z,98539.75
2023-03-12T19:53:08.704Z,98550.38
2023-03-12T19:57:10.962Z,98557.25
2023-03-12T20:01:13.246Z,98562.59
2023-03-12T20:05:16.148Z,98579.53
2023-03-12T20:09:18.505Z,98587.22
2023-03-12T20:13:21.028Z,98581.31
2023-03-12T20:17:23.560Z,98589.81
2023-03-12T20:21:25.731Z,98601.13
2023-03-12T20:25:27.810Z,98599.53
2023-03-12T20:29:30.480Z,98603.97
2023-03-12T20:33:33.161Z,98603.69
2023-03-12T20:37:37.210Z,98607.22
2023-03-12T20:41:40.624Z,98605.03
2023-03-12T20:45:48.161Z,98601.31
2023-03-12T20:49:50.517Z,98604.25
2023-03-12T20:53:52.707Z,98604.22
2023-03-12T20:57:54.786Z,98612.66
2023-03-12T21:01:58.194Z,98614.00
2023-03-12T21:06:02.534Z,98630.59
2023-03-12T21:10:05.288Z,98617.53
2023-03-12T21:14:07.997Z,98633.16
2023-03-12T21:18:10.681Z,98640.88
2023-03-12T21:22:13.253Z,98640.34
2023-03-12T21:26:15.561Z,98637.47
2023-03-12T21:30:18.884Z,98637.38
2023-03-12T21:34:23.324Z,98636.84
2023-03-12T21:38:25.491Z,98646.69
2023-03-12T21:42:28.494Z,98645.34
2023-03-12T21:46:31.156Z,98656.34
2023-03-12T21:50:33.950Z,98661.38
2023-03-12T21:54:37.476Z,98673.34
2023-03-12T21:58:42.394Z,98667.38
2023-03-12T22:02:45.910Z,98681.81
2023-03-12T22:06:48.086Z,98691.56
2023-03-12T22:10:50.149Z,98682.75
2023-03-12T22:14:53.305Z,98689.97
2023-03-12T22:18:57.089Z,98689.47
2023-03-12T22:22:59.927Z,98698.47
2023-03-12T22:27:03.556Z,98697.13
2023-03-12T22:31:08.280Z,98696.00
2023-03-12T22:35:10.549Z,98695.66
2023-03-12T22:39:12.858Z,98700.78
2023-03-12T22:43:16.145Z,98695.88
2023-03-12T22:47:18.344Z,98696.78
2023-03-12T22:51:20.427Z,98689.56
2023-03-12T22:55:22.634Z,98695.97
2023-03-12T22:59:24.887Z,98697.41
2023-03-12T23:03:28.587Z,98699.41
2023-03-12T23:07:30.932Z,98691.97
2023-03-12T23:11:33.099Z,98693.03
2023-03-12T23:15:41.538Z,98695.63
2023-03-12T23:19:44.250Z,98706.38
2023-03-12T23:23:47.740Z,98696.88
2023-03-12T23:27:49.882Z,98690.97
2023-03-12T23:31:52.397Z,98684.63
2023-03-12T23:36:06.070Z,98681.50
2023-03-12T23:40:11.219Z,98676.25
2023-03-12T23:44:13.320Z,98679.72
2023-03-12T23:48:15.474Z,98683.47
2023-03-12T23:52:17.608Z,98690.72
2023-03-12T23:56:22.868Z,98702.13
